sensor_id;sensor_type;location;lat;lon;timestamp;temperature;humidity
69677;DHT22;56914;51.058;9.326;2023-02-18T00:00:25;15.80;62.60
69677;DHT22;56914;51.058;9.326;2023-02-18T00:01:27;15.80;62.60
69677;DHT22;56914;51.058;9.326;2023-02-18T00:02:31;15.80;62.70
69677;DHT22;56914;51.058;9.326;2023-02-18T00:03:34;15.80;62.60
69677;DHT22;56914;51.058;9.326;2023-02-18T00:04:38;15.80;62.50
69677;DHT22;56914;51.058;9.326;2023-02-18T00:05:41;15.90;62.50
69677;DHT22;56914;51.058;9.326;2023-02-18T00:06:44;15.80;62.50
69677;DHT22;56914;51.058;9.326;2023-02-18T00:07:47;15.90;62.50
69677;DHT22;56914;51.058;9.326;2023-02-18T00:08:50;15.90;62.40
69677;DHT22;56914;51.058;9.326;2023-02-18T00:09:54;15.90;62.30
69677;DHT22;56914;51.058;9.326;2023-02-18T00:10:57;15.90;62.20
69677;DHT22;56914;51.058;9.326;2023-02-18T00:11:59;15.90;62.20
69677;DHT22;56914;51.058;9.326;2023-02-18T00:13:02;15.90;62.20
69677;DHT22;56914;51.058;9.326;2023-02-18T00:14:07;15.80;62.30
69677;DHT22;56914;51.058;9.326;2023-02-18T00:15:11;15.80;62.40
69677;DHT22;56914;51.058;9.326;2023-02-18T00:16:13;15.80;62.50
69677;DHT22;56914;51.058;9.326;2023-02-18T00:17:17;15.80;62.30
69677;DHT22;56914;51.058;9.326;2023-02-18T00:18:19;15.80;62.40
69677;DHT22;56914;51.058;9.326;2023-02-18T00:19:22;15.90;62.50
69677;DHT22;56914;51.058;9.326;2023-02-18T00:20:26;15.90;62.30
69677;DHT22;56914;51.058;9.326;2023-02-18T00:21:30;15.80;62.30
69677;DHT22;56914;51.058;9.326;2023-02-18T00:22:33;15.80;62.40
69677;DHT22;56914;51.058;9.326;2023-02-18T00:23:37;15.80;62.40
69677;DHT22;56914;51.058;9.326;2023-02-18T00:24:39;15.80;62.40
69677;DHT22;56914;51.058;9.326;2023-02-18T00:25:42;15.70;62.50
69677;DHT22;56914;51.058;9.326;2023-02-18T00:26:44;15.70;62.60
69677;DHT22;56914;51.058;9.326;2023-02-18T00:27:48;15.70;62.60
69677;DHT22;56914;51.058;9.326;2023-02-18T00:28:51;15.70;62.70
69677;DHT22;56914;51.058;9.326;2023-02-18T00:29:55;15.70;62.70
69677;DHT22;56914;51.058;9.326;2023-02-18T00:30:58;15.70;62.60
69677;DHT22;56914;51.058;9.326;2023-02-18T00:32:02;15.70;62.50
69677;DHT22;56914;51.058;9.326;2023-02-18T00:33:04;15.80;62.60
69677;DHT22;56914;51.058;9.326;2023-02-18T00:34:10;15.80;62.50
69677;DHT22;56914;51.058;9.326;2023-02-18T00:35:12;15.80;62.60
69677;DHT22;56914;51.058;9.326;2023-02-18T00:36:19;15.80;62.50
69677;DHT22;56914;51.058;9.326;2023-02-18T00:37:21;15.80;62.50
69677;DHT22;56914;51.058;9.326;2023-02-18T00:38:24;15.80;62.30
69677;DHT22;56914;51.058;9.326;2023-02-18T00:39:27;15.80;62.30
69677;DHT22;56914;51.058;9.326;2023-02-18T00:40:30;15.90;62.30
69677;DHT22;56914;51.058;9.326;2023-02-18T00:41:33;15.90;62.40
69677;DHT22;56914;51.058;9.326;2023-02-18T00:42:37;15.80;62.30
69677;DHT22;56914;51.058;9.326;2023-02-18T00:43:39;15.80;62.30
69677;DHT22;56914;51.058;9.326;2023-02-18T00:44:42;15.80;62.40
69677;DHT22;56914;51.058;9.326;2023-02-18T00:45:44;15.80;62.50
69677;DHT22;56914;51.058;9.326;2023-02-18T00:46:47;15.80;62.50
69677;DHT22;56914;51.058;9.326;2023-02-18T00:47:51;15.80;62.50
69677;DHT22;56914;51.058;9.326;2023-02-18T00:48:53;15.80;62.50
69677;DHT22;56914;51.058;9.326;2023-02-18T00:49:57;15.80;62.60
69677;DHT22;56914;51.058;9.326;2023-02-18T00:50:59;15.80;62.50
69677;DHT22;56914;51.058;9.326;2023-02-18T00:52:04;15.80;62.50
69677;DHT22;56914;51.058;9.326;2023-02-18T00:53:06;15.80;62.50
69677;DHT22;56914;51.058;9.326;2023-02-18T00:54:10;15.90;62.40
69677;DHT22;56914;51.058;9.326;2023-02-18T00:55:12;15.90;62.50
69677;DHT22;56914;51.058;9.326;2023-02-18T00:56:15;15.90;62.50
69677;DHT22;56914;51.058;9.326;2023-02-18T00:57:17;15.90;62.50
69677;DHT22;56914;51.058;9.326;2023-02-18T00:58:21;15.90;62.50
69677;DHT22;56914;51.058;9.326;2023-02-18T00:59:23;15.80;62.60
69677;DHT22;56914;51.058;9.326;2023-02-18T01:00:26;15.80;62.70
69677;DHT22;56914;51.058;9.326;2023-02-18T01:01:28;15.80;62.70
69677;DHT22;56914;51.058;9.326;2023-02-18T01:02:32;15.80;62.70
69677;DHT22;56914;51.058;9.326;2023-02-18T01:03:35;15.80;62.70
69677;DHT22;56914;51.058;9.326;2023-02-18T01:04:38;15.80;62.80
69677;DHT22;56914;51.058;9.326;2023-02-18T01:05:41;15.90;62.70
69677;DHT22;56914;51.058;9.326;2023-02-18T01:06:44;15.90;62.80
69677;DHT22;56914;51.058;9.326;2023-02-18T01:07:49;15.80;62.80
69677;DHT22;56914;51.058;9.326;2023-02-18T01:08:51;15.80;62.70
69677;DHT22;56914;51.058;9.326;2023-02-18T01:09:54;15.80;62.70
69677;DHT22;56914;51.058;9.326;2023-02-18T01:10:57;15.80;62.70
69677;DHT22;56914;51.058;9.326;2023-02-18T01:12:01;15.80;62.80
69677;DHT22;56914;51.058;9.326;2023-02-18T01:13:04;15.80;62.80
69677;DHT22;56914;51.058;9.326;2023-02-18T01:14:07;15.80;62.80
69677;DHT22;56914;51.058;9.326;2023-02-18T01:15:14;15.80;62.80
69677;DHT22;56914;51.058;9.326;2023-02-18T01:16:17;15.70;62.80
69677;DHT22;56914;51.058;9.326;2023-02-18T01:17:20;15.70;63.00
69677;DHT22;56914;51.058;9.326;2023-02-18T01:18:24;15.70;63.00
69677;DHT22;56914;51.058;9.326;2023-02-18T01:19:27;15.80;63.00
69677;DHT22;56914;51.058;9.326;2023-02-18T01:20:29;15.80;63.00
69677;DHT22;56914;51.058;9.326;2023-02-18T01:21:32;15.70;62.80
69677;DHT22;56914;51.058;9.326;2023-02-18T01:22:37;15.80;62.90
69677;DHT22;56914;51.058;9.326;2023-02-18T01:23:42;15.70;62.80
69677;DHT22;56914;51.058;9.326;2023-02-18T01:24:44;15.70;63.00
69677;DHT22;56914;51.058;9.326;2023-02-18T01:25:48;15.60;63.10
69677;DHT22;56914;51.058;9.326;2023-02-18T01:26:51;15.60;63.20
69677;DHT22;56914;51.058;9.326;2023-02-18T01:27:55;15.60;63.20
69677;DHT22;56914;51.058;9.326;2023-02-18T01:28:57;15.70;63.30
69677;DHT22;56914;51.058;9.326;2023-02-18T01:30:00;15.70;63.30
69677;DHT22;56914;51.058;9.326;2023-02-18T01:31:04;15.60;63.30
69677;DHT22;56914;51.058;9.326;2023-02-18T01:32:09;15.60;63.30
69677;DHT22;56914;51.058;9.326;2023-02-18T01:33:13;15.70;63.30
69677;DHT22;56914;51.058;9.326;2023-02-18T01:34:15;15.60;63.30
69677;DHT22;56914;51.058;9.326;2023-02-18T01:35:19;15.60;63.40
69677;DHT22;56914;51.058;9.326;2023-02-18T01:36:21;15.60;63.70
69677;DHT22;56914;51.058;9.326;2023-02-18T01:37:24;15.60;63.90
69677;DHT22;56914;51.058;9.326;2023-02-18T01:38:27;15.60;63.90
69677;DHT22;56914;51.058;9.326;2023-02-18T01:39:31;15.60;64.00
69677;DHT22;56914;51.058;9.326;2023-02-18T01:40:35;15.50;64.10
69677;DHT22;56914;51.058;9.326;2023-02-18T01:41:38;15.50;64.10
69677;DHT22;56914;51.058;9.326;2023-02-18T01:42:41;15.50;64.10
69677;DHT22;56914;51.058;9.326;2023-02-18T01:43:44;15.50;64.00
69677;DHT22;56914;51.058;9.326;2023-02-18T01:44:47;15.50;64.10
69677;DHT22;56914;51.058;9.326;2023-02-18T01:45:57;15.50;64.10
69677;DHT22;56914;51.058;9.326;2023-02-18T01:47:00;15.50;64.10
69677;DHT22;56914;51.058;9.326;2023-02-18T01:48:07;15.50;64.20
69677;DHT22;56914;51.058;9.326;2023-02-18T01:49:15;15.50;64.20
69677;DHT22;56914;51.058;9.326;2023-02-18T01:50:18;15.50;64.20
69677;DHT22;56914;51.058;9.326;2023-02-18T01:51:24;15.50;64.10
69677;DHT22;56914;51.058;9.326;2023-02-18T01:52:27;15.50;64.20
69677;DHT22;56914;51.058;9.326;2023-02-18T01:53:38;15.50;64.20
69677;DHT22;56914;51.058;9.326;2023-02-18T01:54:47;15.50;64.10
69677;DHT22;56914;51.058;9.326;2023-02-18T01:55:51;15.60;64.00
69677;DHT22;56914;51.058;9.326;2023-02-18T01:56:57;15.50;64.00
69677;DHT22;56914;51.058;9.326;2023-02-18T01:58:02;15.50;64.10
69677;DHT22;56914;51.058;9.326;2023-02-18T01:59:09;15.50;64.20
69677;DHT22;56914;51.058;9.326;2023-02-18T02:00:16;15.50;64.30
69677;DHT22;56914;51.058;9.326;2023-02-18T02:01:23;15.50;64.20
69677;DHT22;56914;51.058;9.326;2023-02-18T02:02:29;15.50;64.20
69677;DHT22;56914;51.058;9.326;2023-02-18T02:03:33;15.50;64.20
69677;DHT22;56914;51.058;9.326;2023-02-18T02:04:36;15.50;64.30
69677;DHT22;56914;51.058;9.326;2023-02-18T02:05:38;15.50;64.30
69677;DHT22;56914;51.058;9.326;2023-02-18T02:06:42;15.50;64.20
69677;DHT22;56914;51.058;9.326;2023-02-18T02:07:48;15.50;64.20
69677;DHT22;56914;51.058;9.326;2023-02-18T02:08:56;15.60;64.20
69677;DHT22;56914;51.058;9.326;2023-02-18T02:10:02;15.60;64.10
69677;DHT22;56914;51.058;9.326;2023-02-18T02:11:17;15.60;64.10
69677;DHT22;56914;51.058;9.326;2023-02-18T02:12:40;15.60;64.20
69677;DHT22;56914;51.058;9.326;2023-02-18T02:14:00;15.50;64.30
69677;DHT22;56914;51.058;9.326;2023-02-18T02:15:26;15.50;64.40
69677;DHT22;56914;51.058;9.326;2023-02-18T02:16:39;15.50;64.30
69677;DHT22;56914;51.058;9.326;2023-02-18T02:17:58;15.50;64.50
69677;DHT22;56914;51.058;9.326;2023-02-18T02:19:36;15.50;64.70
69677;DHT22;56914;51.058;9.326;2023-02-18T02:21:08;15.50;64.90
69677;DHT22;56914;51.058;9.326;2023-02-18T02:26:30;15.50;64.90
69677;DHT22;56914;51.058;9.326;2023-02-18T02:28:11;15.50;65.00
69677;DHT22;56914;51.058;9.326;2023-02-18T02:30:00;15.60;65.00
69677;DHT22;56914;51.058;9.326;2023-02-18T02:31:38;15.60;65.10
69677;DHT22;56914;51.058;9.326;2023-02-18T02:33:15;15.50;65.10
69677;DHT22;56914;51.058;9.326;2023-02-18T02:34:41;15.50;65.20
69677;DHT22;56914;51.058;9.326;2023-02-18T02:35:55;15.50;65.40
69677;DHT22;56914;51.058;9.326;2023-02-18T02:37:06;15.50;65.50
69677;DHT22;56914;51.058;9.326;2023-02-18T02:38:17;15.50;65.50
69677;DHT22;56914;51.058;9.326;2023-02-18T02:39:30;15.50;65.40
69677;DHT22;56914;51.058;9.326;2023-02-18T02:40:42;15.50;65.40
69677;DHT22;56914;51.058;9.326;2023-02-18T02:41:57;15.50;65.40
69677;DHT22;56914;51.058;9.326;2023-02-18T02:43:14;15.50;65.50
69677;DHT22;56914;51.058;9.326;2023-02-18T02:44:29;15.50;65.40
69677;DHT22;56914;51.058;9.326;2023-02-18T02:45:47;15.50;65.30
69677;DHT22;56914;51.058;9.326;2023-02-18T02:47:00;15.50;65.30
69677;DHT22;56914;51.058;9.326;2023-02-18T02:48:18;15.60;65.30
69677;DHT22;56914;51.058;9.326;2023-02-18T02:49:33;15.60;65.20
69677;DHT22;56914;51.058;9.326;2023-02-18T02:50:44;15.60;65.20
69677;DHT22;56914;51.058;9.326;2023-02-18T02:51:55;15.50;65.20
69677;DHT22;56914;51.058;9.326;2023-02-18T02:53:08;15.50;65.30
69677;DHT22;56914;51.058;9.326;2023-02-18T02:54:18;15.50;65.40
69677;DHT22;56914;51.058;9.326;2023-02-18T02:55:20;15.40;65.50
69677;DHT22;56914;51.058;9.326;2023-02-18T02:56:24;15.40;65.60
69677;DHT22;56914;51.058;9.326;2023-02-18T02:57:44;15.40;65.70
69677;DHT22;56914;51.058;9.326;2023-02-18T02:58:56;15.40;65.70
69677;DHT22;56914;51.058;9.326;2023-02-18T03:00:06;15.40;65.80
69677;DHT22;56914;51.058;9.326;2023-02-18T03:01:32;15.40;65.90
69677;DHT22;56914;51.058;9.326;2023-02-18T03:04:40;15.30;65.90
69677;DHT22;56914;51.058;9.326;2023-02-18T03:05:59;15.40;66.00
69677;DHT22;56914;51.058;9.326;2023-02-18T03:07:16;15.30;66.10
69677;DHT22;56914;51.058;9.326;2023-02-18T03:08:37;15.30;66.10
69677;DHT22;56914;51.058;9.326;2023-02-18T03:09:56;15.30;66.10
69677;DHT22;56914;51.058;9.326;2023-02-18T03:11:05;15.30;66.20
69677;DHT22;56914;51.058;9.326;2023-02-18T03:12:17;15.30;66.20
69677;DHT22;56914;51.058;9.326;2023-02-18T03:13:30;15.30;66.20
69677;DHT22;56914;51.058;9.326;2023-02-18T03:14:45;15.30;66.20
69677;DHT22;56914;51.058;9.326;2023-02-18T03:15:55;15.30;66.20
69677;DHT22;56914;51.058;9.326;2023-02-18T03:17:04;15.30;66.20
69677;DHT22;56914;51.058;9.326;2023-02-18T03:18:17;15.30;66.10
69677;DHT22;56914;51.058;9.326;2023-02-18T03:19:26;15.30;66.10
69677;DHT22;56914;51.058;9.326;2023-02-18T03:20:36;15.30;66.10
69677;DHT22;56914;51.058;9.326;2023-02-18T03:21:46;15.40;66.00
69677;DHT22;56914;51.058;9.326;2023-02-18T03:22:52;15.40;66.00
69677;DHT22;56914;51.058;9.326;2023-02-18T03:24:00;15.40;66.00
69677;DHT22;56914;51.058;9.326;2023-02-18T03:25:05;15.40;66.00
69677;DHT22;56914;51.058;9.326;2023-02-18T03:26:12;15.40;66.00
69677;DHT22;56914;51.058;9.326;2023-02-18T03:27:22;15.30;66.00
69677;DHT22;56914;51.058;9.326;2023-02-18T03:28:29;15.40;66.00
69677;DHT22;56914;51.058;9.326;2023-02-18T03:29:34;15.40;66.00
69677;DHT22;56914;51.058;9.326;2023-02-18T03:30:42;15.40;66.00
69677;DHT22;56914;51.058;9.326;2023-02-18T03:31:52;15.40;66.00
69677;DHT22;56914;51.058;9.326;2023-02-18T03:33:01;15.40;66.10
69677;DHT22;56914;51.058;9.326;2023-02-18T03:34:08;15.40;66.10
69677;DHT22;56914;51.058;9.326;2023-02-18T03:35:16;15.40;66.00
69677;DHT22;56914;51.058;9.326;2023-02-18T03:36:21;15.40;66.00
69677;DHT22;56914;51.058;9.326;2023-02-18T03:37:25;15.40;66.00
69677;DHT22;56914;51.058;9.326;2023-02-18T03:38:34;15.40;66.00
69677;DHT22;56914;51.058;9.326;2023-02-18T03:39:44;15.40;66.10
69677;DHT22;56914;51.058;9.326;2023-02-18T03:40:48;15.40;66.10
69677;DHT22;56914;51.058;9.326;2023-02-18T03:41:51;15.40;66.10
69677;DHT22;56914;51.058;9.326;2023-02-18T03:42:56;15.40;66.30
69677;DHT22;56914;51.058;9.326;2023-02-18T03:44:01;15.40;66.10
69677;DHT22;56914;51.058;9.326;2023-02-18T03:45:04;15.40;66.10
69677;DHT22;56914;51.058;9.326;2023-02-18T03:46:07;15.40;66.00
69677;DHT22;56914;51.058;9.326;2023-02-18T03:47:10;15.40;66.00
69677;DHT22;56914;51.058;9.326;2023-02-18T03:48:13;15.40;65.90
69677;DHT22;56914;51.058;9.326;2023-02-18T03:49:16;15.40;65.90
69677;DHT22;56914;51.058;9.326;2023-02-18T03:50:19;15.40;65.80
69677;DHT22;56914;51.058;9.326;2023-02-18T03:51:23;15.40;65.70
69677;DHT22;56914;51.058;9.326;2023-02-18T03:52:25;15.40;65.50
69677;DHT22;56914;51.058;9.326;2023-02-18T03:53:28;15.40;65.50
69677;DHT22;56914;51.058;9.326;2023-02-18T03:54:31;15.40;65.40
69677;DHT22;56914;51.058;9.326;2023-02-18T03:55:34;15.40;65.60
69677;DHT22;56914;51.058;9.326;2023-02-18T03:56:36;15.40;65.60
69677;DHT22;56914;51.058;9.326;2023-02-18T03:57:39;15.40;65.60
69677;DHT22;56914;51.058;9.326;2023-02-18T03:58:42;15.40;65.50
69677;DHT22;56914;51.058;9.326;2023-02-18T03:59:45;15.40;65.50
69677;DHT22;56914;51.058;9.326;2023-02-18T04:00:47;15.40;65.60
69677;DHT22;56914;51.058;9.326;2023-02-18T04:01:50;15.40;65.50
69677;DHT22;56914;51.058;9.326;2023-02-18T04:02:52;15.40;65.50
69677;DHT22;56914;51.058;9.326;2023-02-18T04:03:55;15.40;65.50
69677;DHT22;56914;51.058;9.326;2023-02-18T04:04:58;15.30;65.40
69677;DHT22;56914;51.058;9.326;2023-02-18T04:06:01;15.30;65.50
69677;DHT22;56914;51.058;9.326;2023-02-18T04:07:05;15.30;65.60
69677;DHT22;56914;51.058;9.326;2023-02-18T04:08:08;15.30;65.50
69677;DHT22;56914;51.058;9.326;2023-02-18T04:09:10;15.30;65.50
69677;DHT22;56914;51.058;9.326;2023-02-18T04:10:13;15.40;65.50
69677;DHT22;56914;51.058;9.326;2023-02-18T04:11:16;15.30;65.40
69677;DHT22;56914;51.058;9.326;2023-02-18T04:12:19;15.40;65.50
69677;DHT22;56914;51.058;9.326;2023-02-18T04:13:21;15.30;65.90
69677;DHT22;56914;51.058;9.326;2023-02-18T04:14:25;15.30;65.50
69677;DHT22;56914;51.058;9.326;2023-02-18T04:15:27;15.30;65.50
69677;DHT22;56914;51.058;9.326;2023-02-18T04:16:31;15.30;65.50
69677;DHT22;56914;51.058;9.326;2023-02-18T04:17:33;15.30;65.50
69677;DHT22;56914;51.058;9.326;2023-02-18T04:18:36;15.30;65.50
69677;DHT22;56914;51.058;9.326;2023-02-18T04:19:38;15.30;65.40
69677;DHT22;56914;51.058;9.326;2023-02-18T04:20:42;15.40;65.40
69677;DHT22;56914;51.058;9.326;2023-02-18T04:21:44;15.30;65.40
69677;DHT22;56914;51.058;9.326;2023-02-18T04:22:49;15.40;65.40
69677;DHT22;56914;51.058;9.326;2023-02-18T04:23:51;15.40;65.40
69677;DHT22;56914;51.058;9.326;2023-02-18T04:24:54;15.40;65.40
69677;DHT22;56914;51.058;9.326;2023-02-18T04:25:57;15.40;65.40
69677;DHT22;56914;51.058;9.326;2023-02-18T04:27:00;15.40;65.40
69677;DHT22;56914;51.058;9.326;2023-02-18T04:28:02;15.40;65.30
69677;DHT22;56914;51.058;9.326;2023-02-18T04:29:06;15.40;65.10
69677;DHT22;56914;51.058;9.326;2023-02-18T04:30:08;15.40;65.00
69677;DHT22;56914;51.058;9.326;2023-02-18T04:31:12;15.50;65.10
69677;DHT22;56914;51.058;9.326;2023-02-18T04:32:14;15.50;65.00
69677;DHT22;56914;51.058;9.326;2023-02-18T04:33:17;15.50;64.90
69677;DHT22;56914;51.058;9.326;2023-02-18T04:34:19;15.50;64.70
69677;DHT22;56914;51.058;9.326;2023-02-18T04:35:23;15.50;64.80
69677;DHT22;56914;51.058;9.326;2023-02-18T04:36:25;15.50;64.80
69677;DHT22;56914;51.058;9.326;2023-02-18T04:37:29;15.50;64.80
69677;DHT22;56914;51.058;9.326;2023-02-18T04:38:34;15.50;64.70
69677;DHT22;56914;51.058;9.326;2023-02-18T04:39:36;15.50;64.60
69677;DHT22;56914;51.058;9.326;2023-02-18T04:40:39;15.50;64.60
69677;DHT22;56914;51.058;9.326;2023-02-18T04:41:41;15.50;64.50
69677;DHT22;56914;51.058;9.326;2023-02-18T04:42:44;15.50;64.40
69677;DHT22;56914;51.058;9.326;2023-02-18T04:43:46;15.50;64.40
69677;DHT22;56914;51.058;9.326;2023-02-18T04:44:50;15.50;64.30
69677;DHT22;56914;51.058;9.326;2023-02-18T04:45:52;15.60;64.20
69677;DHT22;56914;51.058;9.326;2023-02-18T04:46:55;15.60;64.20
69677;DHT22;56914;51.058;9.326;2023-02-18T04:47:57;15.50;64.20
69677;DHT22;56914;51.058;9.326;2023-02-18T04:49:00;15.50;64.10
69677;DHT22;56914;51.058;9.326;2023-02-18T04:50:03;15.50;64.10
69677;DHT22;56914;51.058;9.326;2023-02-18T04:51:07;15.50;64.10
69677;DHT22;56914;51.058;9.326;2023-02-18T04:52:09;15.50;64.10
69677;DHT22;56914;51.058;9.326;2023-02-18T04:53:12;15.50;64.00
69677;DHT22;56914;51.058;9.326;2023-02-18T04:54:16;15.50;63.90
69677;DHT22;56914;51.058;9.326;2023-02-18T04:55:19;15.50;63.90
69677;DHT22;56914;51.058;9.326;2023-02-18T04:56:21;15.50;64.00
69677;DHT22;56914;51.058;9.326;2023-02-18T04:57:24;15.50;64.00
69677;DHT22;56914;51.058;9.326;2023-02-18T04:58:26;15.50;64.00
69677;DHT22;56914;51.058;9.326;2023-02-18T04:59:29;15.50;64.00
69677;DHT22;56914;51.058;9.326;2023-02-18T05:00:32;15.50;64.10
69677;DHT22;56914;51.058;9.326;2023-02-18T05:01:35;15.50;64.50
69677;DHT22;56914;51.058;9.326;2023-02-18T05:02:37;15.50;64.00
69677;DHT22;56914;51.058;9.326;2023-02-18T05:03:40;15.50;63.90
69677;DHT22;56914;51.058;9.326;2023-02-18T05:04:43;15.50;63.90
69677;DHT22;56914;51.058;9.326;2023-02-18T05:05:46;15.50;63.90
69677;DHT22;56914;51.058;9.326;2023-02-18T05:06:48;15.50;64.50
69677;DHT22;56914;51.058;9.326;2023-02-18T05:07:51;15.50;63.80
69677;DHT22;56914;51.058;9.326;2023-02-18T05:08:53;15.50;63.90
69677;DHT22;56914;51.058;9.326;2023-02-18T05:09:58;15.50;63.90
69677;DHT22;56914;51.058;9.326;2023-02-18T05:11:04;15.50;63.80
69677;DHT22;56914;51.058;9.326;2023-02-18T05:12:08;15.50;63.80
69677;DHT22;56914;51.058;9.326;2023-02-18T05:13:10;15.50;63.80
69677;DHT22;56914;51.058;9.326;2023-02-18T05:14:13;15.40;63.80
69677;DHT22;56914;51.058;9.326;2023-02-18T05:15:16;15.40;64.00
69677;DHT22;56914;51.058;9.326;2023-02-18T05:16:19;15.40;64.00
69677;DHT22;56914;51.058;9.326;2023-02-18T05:17:21;15.40;64.10
69677;DHT22;56914;51.058;9.326;2023-02-18T05:18:25;15.40;64.10
69677;DHT22;56914;51.058;9.326;2023-02-18T05:19:28;15.50;64.10
69677;DHT22;56914;51.058;9.326;2023-02-18T05:20:31;15.50;64.20
69677;DHT22;56914;51.058;9.326;2023-02-18T05:21:34;15.50;64.20
69677;DHT22;56914;51.058;9.326;2023-02-18T05:22:37;15.50;64.20
69677;DHT22;56914;51.058;9.326;2023-02-18T05:23:40;15.50;64.40
69677;DHT22;56914;51.058;9.326;2023-02-18T05:24:43;15.50;64.40
69677;DHT22;56914;51.058;9.326;2023-02-18T05:25:47;15.50;64.50
69677;DHT22;56914;51.058;9.326;2023-02-18T05:26:49;15.50;64.50
69677;DHT22;56914;51.058;9.326;2023-02-18T05:27:52;15.50;64.50
69677;DHT22;56914;51.058;9.326;2023-02-18T05:28:55;15.50;64.60
69677;DHT22;56914;51.058;9.326;2023-02-18T05:29:58;15.40;64.90
69677;DHT22;56914;51.058;9.326;2023-02-18T05:31:00;15.40;65.10
69677;DHT22;56914;51.058;9.326;2023-02-18T05:32:04;15.40;65.60
69677;DHT22;56914;51.058;9.326;2023-02-18T05:33:06;15.30;65.70
69677;DHT22;56914;51.058;9.326;2023-02-18T05:34:09;15.30;66.00
69677;DHT22;56914;51.058;9.326;2023-02-18T05:35:12;15.20;66.80
69677;DHT22;56914;51.058;9.326;2023-02-18T05:36:15;15.20;66.50
69677;DHT22;56914;51.058;9.326;2023-02-18T05:37:17;15.20;66.80
69677;DHT22;56914;51.058;9.326;2023-02-18T05:38:20;15.10;67.10
69677;DHT22;56914;51.058;9.326;2023-02-18T05:39:24;15.10;67.30
69677;DHT22;56914;51.058;9.326;2023-02-18T05:40:26;15.00;67.50
69677;DHT22;56914;51.058;9.326;2023-02-18T05:41:31;15.00;67.70
69677;DHT22;56914;51.058;9.326;2023-02-18T05:42:33;15.00;67.90
69677;DHT22;56914;51.058;9.326;2023-02-18T05:43:36;14.90;68.10
69677;DHT22;56914;51.058;9.326;2023-02-18T05:44:53;14.90;68.30
69677;DHT22;56914;51.058;9.326;2023-02-18T05:45:56;14.90;68.50
69677;DHT22;56914;51.058;9.326;2023-02-18T05:47:01;14.90;68.60
69677;DHT22;56914;51.058;9.326;2023-02-18T05:48:04;14.90;68.60
69677;DHT22;56914;51.058;9.326;2023-02-18T05:49:07;14.90;68.70
69677;DHT22;56914;51.058;9.326;2023-02-18T05:50:10;14.90;68.70
69677;DHT22;56914;51.058;9.326;2023-02-18T05:51:12;14.90;68.80
69677;DHT22;56914;51.058;9.326;2023-02-18T05:52:16;14.80;68.90
69677;DHT22;56914;51.058;9.326;2023-02-18T05:53:19;14.80;69.00
69677;DHT22;56914;51.058;9.326;2023-02-18T05:54:23;14.80;69.00
69677;DHT22;56914;51.058;9.326;2023-02-18T05:55:25;14.80;69.10
69677;DHT22;56914;51.058;9.326;2023-02-18T05:56:30;14.80;69.30
69677;DHT22;56914;51.058;9.326;2023-02-18T05:57:33;14.80;69.30
69677;DHT22;56914;51.058;9.326;2023-02-18T05:58:36;14.80;69.30
69677;DHT22;56914;51.058;9.326;2023-02-18T05:59:38;14.80;69.40
69677;DHT22;56914;51.058;9.326;2023-02-18T06:00:41;14.80;69.40
69677;DHT22;56914;51.058;9.326;2023-02-18T06:01:44;14.80;69.50
69677;DHT22;56914;51.058;9.326;2023-02-18T06:02:47;14.80;69.50
69677;DHT22;56914;51.058;9.326;2023-02-18T06:03:49;14.80;69.50
69677;DHT22;56914;51.058;9.326;2023-02-18T06:04:52;14.80;70.00
69677;DHT22;56914;51.058;9.326;2023-02-18T06:05:55;14.80;69.50
69677;DHT22;56914;51.058;9.326;2023-02-18T06:06:58;14.80;69.60
69677;DHT22;56914;51.058;9.326;2023-02-18T06:08:00;14.80;69.70
69677;DHT22;56914;51.058;9.326;2023-02-18T06:09:05;14.80;69.70
69677;DHT22;56914;51.058;9.326;2023-02-18T06:10:07;14.80;69.70
69677;DHT22;56914;51.058;9.326;2023-02-18T06:11:10;14.80;69.80
69677;DHT22;56914;51.058;9.326;2023-02-18T06:12:14;14.80;69.70
69677;DHT22;56914;51.058;9.326;2023-02-18T06:13:17;14.80;69.70
69677;DHT22;56914;51.058;9.326;2023-02-18T06:14:20;14.80;69.70
69677;DHT22;56914;51.058;9.326;2023-02-18T06:15:23;14.80;69.70
69677;DHT22;56914;51.058;9.326;2023-02-18T06:16:26;14.80;69.80
69677;DHT22;56914;51.058;9.326;2023-02-18T06:17:29;14.80;69.90
69677;DHT22;56914;51.058;9.326;2023-02-18T06:18:31;14.80;70.00
69677;DHT22;56914;51.058;9.326;2023-02-18T06:19:34;14.70;70.00
69677;DHT22;56914;51.058;9.326;2023-02-18T06:20:38;14.70;70.00
69677;DHT22;56914;51.058;9.326;2023-02-18T06:21:41;14.70;70.10
69677;DHT22;56914;51.058;9.326;2023-02-18T06:22:44;14.80;70.10
69677;DHT22;56914;51.058;9.326;2023-02-18T06:23:47;14.80;70.10
69677;DHT22;56914;51.058;9.326;2023-02-18T06:24:50;14.80;70.10
69677;DHT22;56914;51.058;9.326;2023-02-18T06:25:52;14.80;70.10
69677;DHT22;56914;51.058;9.326;2023-02-18T06:26:55;14.80;70.10
69677;DHT22;56914;51.058;9.326;2023-02-18T06:27:59;14.80;70.10
69677;DHT22;56914;51.058;9.326;2023-02-18T06:29:02;14.80;70.00
69677;DHT22;56914;51.058;9.326;2023-02-18T06:30:05;14.80;70.10
69677;DHT22;56914;51.058;9.326;2023-02-18T06:31:09;14.80;70.30
69677;DHT22;56914;51.058;9.326;2023-02-18T06:32:12;14.80;70.40
69677;DHT22;56914;51.058;9.326;2023-02-18T06:33:14;14.70;70.30
69677;DHT22;56914;51.058;9.326;2023-02-18T06:34:17;14.80;70.40
69677;DHT22;56914;51.058;9.326;2023-02-18T06:35:20;14.80;70.30
69677;DHT22;56914;51.058;9.326;2023-02-18T06:36:23;14.70;70.30
69677;DHT22;56914;51.058;9.326;2023-02-18T06:37:25;14.70;70.50
69677;DHT22;56914;51.058;9.326;2023-02-18T06:38:28;14.70;70.80
69677;DHT22;56914;51.058;9.326;2023-02-18T06:39:30;14.70;70.80
69677;DHT22;56914;51.058;9.326;2023-02-18T06:40:34;14.70;70.80
69677;DHT22;56914;51.058;9.326;2023-02-18T06:41:36;14.70;70.80
69677;DHT22;56914;51.058;9.326;2023-02-18T06:42:39;14.70;70.80
69677;DHT22;56914;51.058;9.326;2023-02-18T06:43:43;14.70;70.80
69677;DHT22;56914;51.058;9.326;2023-02-18T06:44:46;14.70;71.00
69677;DHT22;56914;51.058;9.326;2023-02-18T06:45:48;14.70;71.10
69677;DHT22;56914;51.058;9.326;2023-02-18T06:46:51;14.70;71.20
69677;DHT22;56914;51.058;9.326;2023-02-18T06:47:54;14.60;71.30
69677;DHT22;56914;51.058;9.326;2023-02-18T06:48:57;14.60;71.50
69677;DHT22;56914;51.058;9.326;2023-02-18T06:49:59;14.60;71.60
69677;DHT22;56914;51.058;9.326;2023-02-18T06:51:03;14.60;71.60
69677;DHT22;56914;51.058;9.326;2023-02-18T06:52:05;14.60;71.70
69677;DHT22;56914;51.058;9.326;2023-02-18T06:53:08;14.60;71.60
69677;DHT22;56914;51.058;9.326;2023-02-18T06:54:10;14.60;71.60
69677;DHT22;56914;51.058;9.326;2023-02-18T06:55:14;14.60;71.60
69677;DHT22;56914;51.058;9.326;2023-02-18T06:56:16;14.60;71.50
69677;DHT22;56914;51.058;9.326;2023-02-18T06:57:19;14.60;71.60
69677;DHT22;56914;51.058;9.326;2023-02-18T06:58:22;14.60;71.60